KSUX/SUX METAR and TAF weather

Enter ICAO airport designator
Station Type Date Time Source
KSUX METAR 2020/09/23 02:52 UTC NOAA

KSUX 230252Z AUTO 13007KT 10SM CLR 16/12 A3000 RMK AO2 SLP156 T01610122 53006


Station Type Date Time Source
KSUX Decoded METAR 2020/09/23 02:52 UTC NOAA

SIOUX GATEWAY AIRPORT, IA, United States (KSUX) 42-23N 96-23W 338M
Sep 22, 2020 - 10:52 PM EDT / 2020.09.23 0252 UTC
Wind: from the SE (130 degrees) at 8 MPH (7 KT):0
Visibility: 10 mile(s):0
Sky conditions: clear
Temperature: 61.0 F (16.1 C)
Dew Point: 54.0 F (12.2 C)
Relative Humidity: 77%
Pressure (altimeter): 30 in. Hg (1015 hPa)
Pressure tendency: 0.02 inches (0.6 hPa) higher than three hours ago
ob: KSUX 230252Z AUTO 13007KT 10SM CLR 16/12 A3000 RMK AO2 SLP156 T01610122 53006
cycle: 3

Station Type Date Time Source
KSUX TAF 2020/09/22 18:34 UTC NOAA

TAF KSUX 221732Z 2218/2318 17011KT P6SM SKC
FM230100 14006KT P6SM SKC
FM231400 18011KT P6SM SKC

Example: see airport list